createdAt,value
2019-05-29T00:01:27.894Z,10.20
2019-05-29T00:03:54.629Z,12.63
2019-05-29T00:06:21.441Z,9.10
2019-05-29T00:08:48.044Z,10.07
2019-05-29T00:11:14.702Z,9.47
2019-05-29T00:13:41.328Z,8.90
2019-05-29T00:16:08.327Z,9.40
2019-05-29T00:18:35.186Z,9.37
2019-05-29T00:21:03.102Z,10.70
2019-05-29T00:23:29.804Z,10.57
2019-05-29T00:25:56.442Z,8.70
2019-05-29T00:28:24.364Z,7.20
2019-05-29T00:30:51.029Z,8.60
2019-05-29T00:33:18.316Z,7.27
2019-05-29T00:35:45.071Z,7.17
2019-05-29T00:38:12.644Z,12.97
2019-05-29T00:40:39.442Z,7.97
2019-05-29T00:43:07.296Z,7.80
2019-05-29T00:45:34.257Z,7.87
2019-05-29T00:48:01.003Z,7.87
2019-05-29T00:50:27.866Z,7.87
2019-05-29T00:52:54.559Z,7.50
2019-05-29T00:55:21.233Z,6.73
2019-05-29T00:57:47.884Z,6.20
2019-05-29T01:00:15.463Z,9.77
2019-05-29T01:02:42.209Z,8.60
2019-05-29T01:05:09.814Z,7.37
2019-05-29T01:07:37.122Z,5.57
2019-05-29T01:10:06.413Z,6.30
2019-05-29T01:12:33.264Z,5.90
2019-05-29T01:14:59.919Z,7.50
2019-05-29T01:17:26.597Z,7.23
2019-05-29T01:19:53.362Z,6.10
2019-05-29T01:22:20.315Z,6.97
2019-05-29T01:24:47.068Z,8.43
2019-05-29T01:27:15.107Z,6.43
2019-05-29T01:29:41.983Z,7.87
2019-05-29T01:32:08.688Z,6.00
2019-05-29T01:34:36.555Z,7.03
2019-05-29T01:37:04.525Z,6.47
2019-05-29T01:39:31.185Z,8.40
2019-05-29T01:41:57.918Z,8.17
2019-05-29T01:44:24.555Z,7.33
2019-05-29T01:46:51.488Z,7.30
2019-05-29T01:49:19.504Z,6.20
2019-05-29T01:51:47.445Z,7.00
2019-05-29T01:54:15.482Z,9.80
2019-05-29T01:56:42.187Z,7.53
2019-05-29T01:59:09.017Z,8.17
2019-05-29T02:01:35.667Z,7.17
2019-05-29T02:04:02.533Z,9.53
2019-05-29T02:06:29.123Z,7.63
2019-05-29T02:08:55.746Z,7.20
2019-05-29T02:11:23.334Z,6.67
2019-05-29T02:13:50.166Z,6.93
2019-05-29T02:16:16.898Z,9.07
2019-05-29T02:18:43.855Z,7.27
2019-05-29T02:21:10.473Z,7.23
2019-05-29T02:23:37.213Z,7.33
2019-05-29T02:26:04.097Z,7.47
2019-05-29T02:28:31.483Z,6.90
2019-05-29T02:30:58.556Z,7.20
2019-05-29T02:33:26.761Z,7.03
2019-05-29T02:35:54.666Z,7.90
2019-05-29T02:38:22.898Z,7.33
2019-05-29T02:40:49.811Z,6.53
2019-05-29T02:43:16.437Z,8.67
2019-05-29T02:45:53.595Z,8.40
2019-05-29T02:48:11.621Z,8.30
2019-05-29T02:50:38.243Z,9.40
2019-05-29T02:53:06.872Z,8.27
2019-05-29T02:55:33.707Z,8.30
2019-05-29T02:58:00.791Z,8.67
2019-05-29T03:00:54.192Z,9.07
2019-05-29T03:03:23.782Z,8.93
2019-05-29T03:05:52.628Z,8.53
2019-05-29T03:08:19.395Z,8.80
2019-05-29T03:10:46.414Z,8.37
2019-05-29T03:13:14.976Z,10.47
2019-05-29T03:15:42.023Z,9.97
2019-05-29T03:18:08.631Z,8.37
2019-05-29T03:20:35.253Z,9.40
2019-05-29T03:23:02.125Z,9.73
2019-05-29T03:25:30.520Z,10.13
2019-05-29T03:27:57.779Z,11.80
2019-05-29T03:30:27.007Z,13.10
2019-05-29T03:32:53.453Z,12.97
2019-05-29T03:35:20.201Z,12.83
2019-05-29T03:37:47.046Z,12.80
2019-05-29T03:40:13.697Z,11.07
2019-05-29T03:42:40.312Z,10.83
2019-05-29T03:45:07.156Z,10.50
2019-05-29T03:47:35.083Z,10.50
2019-05-29T03:50:05.187Z,11.77
2019-05-29T03:52:32.635Z,10.93
2019-05-29T03:55:01.869Z,11.77
2019-05-29T03:57:29.774Z,11.60
2019-05-29T03:59:57.169Z,11.63
2019-05-29T04:02:24.065Z,10.47
2019-05-29T04:04:50.701Z,12.13
2019-05-29T04:07:17.410Z,11.57
2019-05-29T04:09:44.405Z,10.63
2019-05-29T04:12:11.127Z,11.90
2019-05-29T04:14:38.063Z,10.87
2019-05-29T04:17:05.790Z,10.53
2019-05-29T04:19:34.843Z,12.20
2019-05-29T04:22:10.793Z,12.03
2019-05-29T04:24:38.408Z,11.20
2019-05-29T04:27:11.740Z,12.00
2019-05-29T04:29:38.518Z,11.03
2019-05-29T04:32:05.204Z,19.07
2019-05-29T04:34:33.804Z,13.80
2019-05-29T04:37:00.391Z,11.40
2019-05-29T04:39:28.273Z,10.73
2019-05-29T04:41:55.176Z,13.03
2019-05-29T04:44:21.800Z,17.23
2019-05-29T04:46:48.417Z,13.17
2019-05-29T04:49:19.309Z,13.87
2019-05-29T04:51:43.903Z,11.73
2019-05-29T04:54:10.525Z,11.27
2019-05-29T04:56:37.169Z,11.87
2019-05-29T04:59:03.907Z,10.93
2019-05-29T05:01:30.931Z,13.53
2019-05-29T05:03:58.736Z,12.87
2019-05-29T05:06:25.503Z,11.17
2019-05-29T05:08:52.111Z,11.77
2019-05-29T05:11:20.069Z,14.33
2019-05-29T05:13:46.918Z,12.97
2019-05-29T05:16:13.597Z,13.03
2019-05-29T05:18:40.404Z,11.80
2019-05-29T05:21:07.095Z,10.97
2019-05-29T05:23:34.065Z,12.20
2019-05-29T05:26:00.735Z,11.67
2019-05-29T05:28:27.382Z,12.33
2019-05-29T05:30:54.022Z,11.23
2019-05-29T05:33:20.896Z,12.23
2019-05-29T05:35:47.503Z,10.87
2019-05-29T05:38:17.206Z,15.53
2019-05-29T05:40:44.019Z,10.57
2019-05-29T05:43:24.067Z,10.80
2019-05-29T05:45:44.494Z,12.07
2019-05-29T05:48:11.177Z,13.93
2019-05-29T05:50:37.876Z,15.80
2019-05-29T05:53:04.734Z,11.97
2019-05-29T05:55:31.517Z,10.93
2019-05-29T05:57:58.252Z,12.90
2019-05-29T06:00:29.640Z,11.47
2019-05-29T06:02:56.522Z,11.53
2019-05-29T06:05:23.214Z,11.47
2019-05-29T06:07:51.880Z,13.83
2019-05-29T06:10:18.788Z,11.97
2019-05-29T06:12:46.445Z,12.27
2019-05-29T06:15:13.558Z,11.90
2019-05-29T06:17:40.729Z,14.10
2019-05-29T06:20:08.637Z,13.73
2019-05-29T06:22:35.238Z,12.17
2019-05-29T06:25:02.377Z,10.80
2019-05-29T06:27:29.245Z,10.43
2019-05-29T06:29:56.174Z,10.80
2019-05-29T06:32:22.788Z,12.60
2019-05-29T06:34:49.440Z,12.27
2019-05-29T06:37:16.141Z,13.07
2019-05-29T06:39:44.888Z,14.73
2019-05-29T06:42:11.506Z,12.33
2019-05-29T06:44:39.895Z,10.77
2019-05-29T06:47:06.947Z,13.10
2019-05-29T06:49:33.937Z,11.07
2019-05-29T06:52:01.306Z,11.50
2019-05-29T06:54:29.935Z,12.20
2019-05-29T06:56:56.673Z,10.30
2019-05-29T06:59:23.417Z,12.00
2019-05-29T07:01:50.306Z,15.10
2019-05-29T07:04:17.009Z,12.20
2019-05-29T07:06:44.787Z,12.53
2019-05-29T07:09:11.632Z,12.50
2019-05-29T07:11:39.042Z,12.43
2019-05-29T07:14:06.749Z,12.37
2019-05-29T07:16:44.030Z,11.67
2019-05-29T07:19:24.741Z,12.47
2019-05-29T07:21:31.700Z,11.10
2019-05-29T07:23:58.359Z,13.23
2019-05-29T07:26:24.965Z,13.03
2019-05-29T07:29:07.385Z,13.50
2019-05-29T07:31:24.577Z,13.10
2019-05-29T07:33:51.183Z,13.57
2019-05-29T07:36:17.820Z,15.00
2019-05-29T07:39:01.814Z,14.43
2019-05-29T07:41:14.757Z,13.40
2019-05-29T07:43:41.783Z,13.20
2019-05-29T07:46:08.849Z,13.57
2019-05-29T07:48:35.601Z,13.77
2019-05-29T07:51:06.981Z,12.50
2019-05-29T07:53:33.674Z,13.63
2019-05-29T07:55:59.812Z,13.00
2019-05-29T07:58:26.723Z,12.47
2019-05-29T08:01:12.322Z,14.63
2019-05-29T08:03:21.958Z,14.93
2019-05-29T08:05:51.551Z,14.43
2019-05-29T08:08:17.869Z,15.67
2019-05-29T08:10:45.532Z,13.97
2019-05-29T08:13:13.497Z,14.67
2019-05-29T08:15:53.954Z,13.07
2019-05-29T08:18:09.230Z,14.93
2019-05-29T08:20:35.945Z,14.03
2019-05-29T08:23:02.963Z,13.87
2019-05-29T08:25:29.704Z,14.53
2019-05-29T08:27:56.446Z,15.30
2019-05-29T08:30:23.542Z,14.03
2019-05-29T08:32:51.283Z,14.30
2019-05-29T08:35:18.639Z,13.63
2019-05-29T08:37:45.246Z,13.90
2019-05-29T08:40:12.883Z,14.70
2019-05-29T08:42:39.649Z,13.67
2019-05-29T08:45:07.644Z,14.13
2019-05-29T08:47:34.474Z,12.87
2019-05-29T08:50:17.366Z,13.00
2019-05-29T08:52:30.805Z,12.77
2019-05-29T08:54:57.483Z,12.87
2019-05-29T08:57:24.644Z,11.30
2019-05-29T08:59:52.599Z,12.57
2019-05-29T09:02:19.595Z,13.70
2019-05-29T09:04:48.382Z,13.30
2019-05-29T09:07:15.024Z,16.70
2019-05-29T09:09:42.963Z,11.83
2019-05-29T09:12:09.871Z,10.93
2019-05-29T09:14:36.550Z,11.37
2019-05-29T09:17:03.619Z,11.53
2019-05-29T09:19:30.405Z,10.70
2019-05-29T09:21:57.084Z,9.33
2019-05-29T09:24:24.096Z,11.93
2019-05-29T09:26:50.847Z,8.60
2019-05-29T09:29:20.233Z,8.97
2019-05-29T09:31:46.078Z,13.47
2019-05-29T09:34:13.902Z,9.93
2019-05-29T09:36:42.929Z,9.47
2019-05-29T09:39:09.736Z,10.97
2019-05-29T09:41:36.611Z,10.07
2019-05-29T09:44:03.654Z,10.00
2019-05-29T09:46:30.386Z,9.80
2019-05-29T09:49:01.193Z,12.00
2019-05-29T09:51:26.298Z,7.73
2019-05-29T09:53:54.307Z,8.33
2019-05-29T09:56:21.917Z,9.50
2019-05-29T09:58:48.742Z,9.47
2019-05-29T10:01:23.388Z,12.23
2019-05-29T10:03:44.225Z,10.20
2019-05-29T10:06:11.939Z,11.30
2019-05-29T10:08:38.895Z,11.10
2019-05-29T10:11:10.394Z,10.77
2019-05-29T10:13:34.332Z,11.33
2019-05-29T10:16:01.042Z,11.00
2019-05-29T10:18:32.417Z,11.03
2019-05-29T10:20:58.079Z,12.60
2019-05-29T10:23:25.600Z,10.70
2019-05-29T10:25:52.282Z,13.20
2019-05-29T10:28:18.950Z,11.60
2019-05-29T10:30:48.279Z,11.10
2019-05-29T10:33:15.238Z,10.83
2019-05-29T10:35:44.675Z,8.53
2019-05-29T10:38:11.635Z,11.93
2019-05-29T10:40:38.471Z,11.00
2019-05-29T10:43:05.338Z,9.90
2019-05-29T10:45:33.985Z,9.70
2019-05-29T10:48:00.731Z,10.20
2019-05-29T10:50:27.347Z,10.30
2019-05-29T10:52:54.330Z,9.97
2019-05-29T10:55:23.560Z,9.90
2019-05-29T10:57:50.804Z,10.30
2019-05-29T11:00:18.968Z,10.50
2019-05-29T11:02:48.164Z,11.03
2019-05-29T11:05:15.742Z,13.33
2019-05-29T11:07:42.614Z,11.07
2019-05-29T11:10:13.346Z,11.10
2019-05-29T11:12:39.618Z,8.67
2019-05-29T11:15:20.818Z,9.40
2019-05-29T11:17:35.679Z,9.67
2019-05-29T11:20:06.448Z,9.53
2019-05-29T11:22:33.082Z,11.87
2019-05-29T11:25:20.651Z,10.80
2019-05-29T11:27:28.652Z,10.07
2019-05-29T11:29:55.643Z,9.97
2019-05-29T11:32:23.603Z,10.53
2019-05-29T11:34:52.320Z,9.63
2019-05-29T11:37:18.705Z,11.23
2019-05-29T11:39:45.504Z,12.23
2019-05-29T11:42:26.458Z,11.53
2019-05-29T11:44:40.906Z,12.80
2019-05-29T11:47:07.726Z,14.43
2019-05-29T11:49:34.507Z,12.13
2019-05-29T11:52:22.626Z,11.47
2019-05-29T11:54:29.758Z,11.27
2019-05-29T11:56:57.350Z,12.70
2019-05-29T11:59:24.417Z,10.83
2019-05-29T12:01:52.602Z,13.87
2019-05-29T12:04:26.268Z,13.10
2019-05-29T12:06:48.214Z,14.80
2019-05-29T12:09:29.059Z,15.90
2019-05-29T12:11:43.298Z,17.63
2019-05-29T12:14:09.954Z,19.37
2019-05-29T12:16:36.967Z,18.90
2019-05-29T12:19:03.810Z,20.27
2019-05-29T12:21:30.348Z,21.73
2019-05-29T12:23:58.099Z,23.57
2019-05-29T12:26:25.091Z,20.27
2019-05-29T12:28:53.920Z,22.60
2019-05-29T12:31:21.688Z,17.10
2019-05-29T12:33:48.477Z,19.57
2019-05-29T12:36:15.371Z,16.43
2019-05-29T12:38:42.016Z,19.90
2019-05-29T12:41:08.643Z,19.97
2019-05-29T12:43:35.258Z,19.07
2019-05-29T12:46:02.273Z,16.97
2019-05-29T12:48:28.907Z,18.70
2019-05-29T12:50:56.104Z,17.67
2019-05-29T12:53:30.359Z,15.80
2019-05-29T12:55:53.963Z,12.80
2019-05-29T12:58:20.743Z,13.37
2019-05-29T13:00:47.406Z,11.43
2019-05-29T13:03:14.142Z,14.57
2019-05-29T13:05:40.959Z,12.73
2019-05-29T13:08:07.714Z,13.77
2019-05-29T13:10:34.469Z,13.83
2019-05-29T13:13:06.943Z,13.37
2019-05-29T13:15:29.887Z,16.13
2019-05-29T13:18:02.650Z,16.67
2019-05-29T13:20:25.189Z,13.23
2019-05-29T13:22:52.448Z,9.83
2019-05-29T13:25:19.255Z,10.63
2019-05-29T13:27:45.990Z,10.13
2019-05-29T13:30:14.789Z,10.33
2019-05-29T13:32:42.154Z,12.50
2019-05-29T13:35:09.748Z,11.60
2019-05-29T13:37:36.482Z,10.07
2019-05-29T13:40:08.293Z,9.80
2019-05-29T13:42:35.320Z,9.90
2019-05-29T13:45:13.442Z,9.37
2019-05-29T13:47:33.100Z,13.13
2019-05-29T13:50:04.361Z,11.50
2019-05-29T13:52:28.547Z,11.07
2019-05-29T13:54:55.301Z,11.10
2019-05-29T13:57:22.086Z,9.97
2019-05-29T13:59:49.499Z,8.73
2019-05-29T14:02:16.207Z,9.47
2019-05-29T14:04:42.956Z,8.83
2019-05-29T14:07:11.574Z,8.50
2019-05-29T14:09:38.210Z,8.17
2019-05-29T14:12:05.272Z,14.93
2019-05-29T14:14:32.243Z,8.03
2019-05-29T14:17:00.340Z,9.80
2019-05-29T14:19:27.329Z,7.87
2019-05-29T14:21:54.189Z,7.20
2019-05-29T14:24:29.086Z,10.87
2019-05-29T14:26:49.475Z,6.20
2019-05-29T14:29:16.381Z,6.23
2019-05-29T14:31:43.211Z,5.77
2019-05-29T14:34:10.030Z,7.27
2019-05-29T14:36:36.635Z,7.83
2019-05-29T14:39:05.786Z,8.60
2019-05-29T14:41:32.498Z,8.07
2019-05-29T14:43:59.368Z,7.73
2019-05-29T14:46:26.323Z,7.93
2019-05-29T14:48:53.080Z,6.07
2019-05-29T14:51:19.718Z,5.97
2019-05-29T14:53:46.682Z,7.23
2019-05-29T14:56:13.569Z,7.53
2019-05-29T14:58:40.295Z,8.40
2019-05-29T15:01:07.218Z,6.63
2019-05-29T15:03:33.982Z,6.97
2019-05-29T15:06:00.922Z,5.67
2019-05-29T15:08:27.673Z,6.37
2019-05-29T15:10:54.299Z,6.87
2019-05-29T15:13:21.186Z,5.80
2019-05-29T15:15:47.913Z,6.37
2019-05-29T15:18:18.546Z,4.90
2019-05-29T15:20:43.676Z,4.10
2019-05-29T15:23:11.491Z,5.10
2019-05-29T15:25:38.333Z,6.20
2019-05-29T15:28:06.132Z,5.93
2019-05-29T15:30:33.115Z,12.37
2019-05-29T15:32:59.815Z,7.63
2019-05-29T15:35:26.506Z,6.07
2019-05-29T15:37:53.191Z,6.17
2019-05-29T15:40:20.008Z,5.47
2019-05-29T15:42:46.669Z,4.80
2019-05-29T15:45:14.296Z,7.63
2019-05-29T15:47:41.257Z,5.10
2019-05-29T15:50:11.110Z,5.23
2019-05-29T15:52:38.342Z,3.57
2019-05-29T15:55:21.300Z,4.43
2019-05-29T15:57:34.359Z,3.20
2019-05-29T16:00:01.113Z,3.43
2019-05-29T16:02:27.882Z,2.93
2019-05-29T16:04:54.864Z,3.27
2019-05-29T16:07:21.486Z,2.47
2019-05-29T16:09:48.448Z,2.57
2019-05-29T16:12:15.186Z,3.63
2019-05-29T16:14:41.820Z,4.33
2019-05-29T16:17:09.047Z,1.77
2019-05-29T16:19:35.889Z,1.50
2019-05-29T16:22:06.041Z,2.10
2019-05-29T16:24:33.266Z,3.07
2019-05-29T16:27:08.350Z,1.77
2019-05-29T16:29:28.759Z,3.33
2019-05-29T16:31:55.568Z,1.90
2019-05-29T16:34:23.008Z,4.30
2019-05-29T16:36:50.048Z,3.83
2019-05-29T16:39:19.204Z,3.10
2019-05-29T16:41:45.657Z,4.30
2019-05-29T16:44:12.496Z,1.83
2019-05-29T16:46:39.241Z,5.10
2019-05-29T16:49:12.442Z,1.40
2019-05-29T16:51:41.958Z,1.40
2019-05-29T16:54:08.424Z,3.67
2019-05-29T16:56:35.159Z,1.73
2019-05-29T16:59:01.911Z,3.40
2019-05-29T17:01:32.005Z,1.60
2019-05-29T17:03:58.752Z,2.17
2019-05-29T17:06:26.508Z,1.83
2019-05-29T17:08:54.181Z,3.90
2019-05-29T17:11:20.853Z,4.30
2019-05-29T17:13:47.498Z,3.13
2019-05-29T17:16:14.419Z,2.63
2019-05-29T17:18:43.445Z,2.00
2019-05-29T17:21:10.232Z,4.73
2019-05-29T17:23:39.007Z,1.90
2019-05-29T17:26:10.673Z,3.13
2019-05-29T17:28:34.441Z,4.70
2019-05-29T17:31:02.391Z,2.90
2019-05-29T17:33:29.314Z,2.53
2019-05-29T17:35:56.040Z,4.53
2019-05-29T17:38:23.294Z,2.27
2019-05-29T17:40:50.159Z,2.53
2019-05-29T17:43:21.447Z,3.77
2019-05-29T17:45:46.033Z,2.33
2019-05-29T17:48:12.948Z,12.33
2019-05-29T17:50:40.987Z,2.33
2019-05-29T17:53:08.200Z,2.43
2019-05-29T17:55:34.949Z,2.20
2019-05-29T17:58:01.975Z,2.73
2019-05-29T18:00:28.815Z,1.87
2019-05-29T18:02:55.683Z,2.03
2019-05-29T18:05:22.707Z,2.17
2019-05-29T18:07:49.660Z,2.17
2019-05-29T18:10:20.319Z,4.60
2019-05-29T18:12:45.595Z,2.93
2019-05-29T18:15:12.750Z,2.80
2019-05-29T18:17:39.427Z,2.43
2019-05-29T18:20:08.716Z,5.33
2019-05-29T18:22:35.678Z,2.33
2019-05-29T18:25:05.176Z,5.00
2019-05-29T18:27:32.171Z,4.67
2019-05-29T18:30:13.977Z,2.10
2019-05-29T18:32:40.909Z,3.10
2019-05-29T18:35:08.480Z,2.23
2019-05-29T18:37:35.111Z,5.27
2019-05-29T18:40:07.782Z,4.80
2019-05-29T18:42:32.917Z,6.73
2019-05-29T18:44:59.731Z,2.13
2019-05-29T18:47:29.264Z,3.03
2019-05-29T18:49:56.028Z,2.87
2019-05-29T18:52:24.058Z,4.83
2019-05-29T18:54:50.709Z,3.83
2019-05-29T18:57:18.610Z,6.37
2019-05-29T18:59:45.403Z,3.07
2019-05-29T19:02:12.512Z,5.50
2019-05-29T19:04:39.348Z,4.67
2019-05-29T19:07:06.122Z,3.37
2019-05-29T19:09:32.878Z,3.83
2019-05-29T19:11:59.606Z,7.93
2019-05-29T19:14:29.933Z,5.10
2019-05-29T19:16:58.012Z,3.93
2019-05-29T19:19:26.047Z,6.97
2019-05-29T19:21:52.818Z,6.30
2019-05-29T19:24:19.481Z,3.27
2019-05-29T19:26:46.501Z,4.50
2019-05-29T19:29:13.347Z,3.53
2019-05-29T19:31:42.476Z,2.83
2019-05-29T19:34:09.787Z,3.53
2019-05-29T19:36:36.651Z,3.70
2019-05-29T19:39:06.237Z,2.53
2019-05-29T19:41:33.938Z,3.50
2019-05-29T19:44:01.507Z,3.70
2019-05-29T19:46:31.134Z,4.70
2019-05-29T19:48:58.395Z,3.10
2019-05-29T19:51:25.308Z,3.23
2019-05-29T19:53:51.903Z,4.57
2019-05-29T19:56:18.608Z,5.63
2019-05-29T19:58:45.481Z,5.67
2019-05-29T20:01:12.354Z,5.67
2019-05-29T20:03:39.115Z,7.97
2019-05-29T20:06:05.909Z,5.10
2019-05-29T20:08:35.880Z,5.53
2019-05-29T20:11:01.145Z,4.63
2019-05-29T20:13:27.955Z,5.10
2019-05-29T20:15:54.623Z,4.57
2019-05-29T20:18:21.315Z,5.10
2019-05-29T20:20:48.285Z,4.90
2019-05-29T20:23:15.054Z,4.07
2019-05-29T20:25:41.669Z,4.63
2019-05-29T20:28:08.243Z,4.80
2019-05-29T20:30:36.393Z,5.13
2019-05-29T20:33:03.494Z,6.70
2019-05-29T20:35:31.380Z,5.33
2019-05-29T20:37:58.305Z,3.57
2019-05-29T20:40:25.056Z,4.80
2019-05-29T20:42:51.684Z,6.27
2019-05-29T20:45:20.176Z,4.23
2019-05-29T20:47:46.936Z,3.57
2019-05-29T20:50:15.531Z,3.87
2019-05-29T20:52:42.250Z,3.77
2019-05-29T20:55:10.655Z,4.03
2019-05-29T20:57:38.025Z,3.77
2019-05-29T21:00:10.092Z,3.83
2019-05-29T21:02:37.945Z,4.30
2019-05-29T21:05:05.497Z,5.30
2019-05-29T21:07:32.593Z,4.73
2019-05-29T21:10:00.124Z,4.77
2019-05-29T21:12:26.811Z,4.83
2019-05-29T21:14:53.664Z,5.97
2019-05-29T21:17:20.369Z,5.10
2019-05-29T21:19:47.072Z,5.37
2019-05-29T21:22:13.977Z,5.67
2019-05-29T21:24:41.143Z,5.30
2019-05-29T21:27:07.771Z,4.87
2019-05-29T21:29:35.158Z,6.10
2019-05-29T21:32:01.875Z,4.03
2019-05-29T21:34:29.062Z,6.87
2019-05-29T21:36:55.831Z,5.47
2019-05-29T21:39:22.618Z,3.67
2019-05-29T21:41:49.291Z,4.90
2019-05-29T21:44:16.145Z,4.97
2019-05-29T21:46:43.099Z,5.20
2019-05-29T21:49:09.836Z,4.93
2019-05-29T21:51:37.406Z,6.43
2019-05-29T21:54:04.501Z,6.13
2019-05-29T21:56:31.091Z,6.27
2019-05-29T21:59:03.440Z,5.07
2019-05-29T22:01:27.449Z,5.37
2019-05-29T22:06:32.844Z,6.07
2019-05-29T22:08:59.624Z,4.77
2019-05-29T22:11:27.072Z,5.60
2019-05-29T22:13:54.420Z,6.47
2019-05-29T22:16:21.478Z,4.47
2019-05-29T22:18:48.294Z,3.57
2019-05-29T22:21:14.967Z,5.40
2019-05-29T22:23:41.914Z,3.73
2019-05-29T22:26:08.750Z,4.70
2019-05-29T22:28:35.489Z,7.37
2019-05-29T22:31:02.721Z,4.33
2019-05-29T22:33:29.497Z,5.43
2019-05-29T22:35:57.425Z,4.47
2019-05-29T22:38:24.216Z,5.87
2019-05-29T22:40:52.190Z,3.73
2019-05-29T22:43:19.625Z,4.50
2019-05-29T22:45:46.519Z,7.33
2019-05-29T22:48:13.333Z,5.27
2019-05-29T22:50:40.100Z,4.53
2019-05-29T22:53:07.224Z,6.50
2019-05-29T22:55:33.848Z,5.83
2019-05-29T22:58:02.108Z,4.57
2019-05-29T23:00:29.136Z,7.30
2019-05-29T23:02:56.250Z,14.47
2019-05-29T23:05:23.025Z,4.83
2019-05-29T23:07:49.749Z,7.13
2019-05-29T23:10:17.689Z,5.47
2019-05-29T23:12:44.454Z,6.57
2019-05-29T23:15:12.473Z,4.70
2019-05-29T23:17:39.163Z,6.03
2019-05-29T23:20:06.673Z,5.03
2019-05-29T23:22:33.603Z,4.73
2019-05-29T23:25:03.322Z,4.93
2019-05-29T23:27:34.813Z,14.53
2019-05-29T23:30:04.952Z,8.73
2019-05-29T23:32:35.668Z,5.37
2019-05-29T23:35:04.532Z,3.97
2019-05-29T23:37:31.283Z,4.70
2019-05-29T23:39:59.156Z,6.77
2019-05-29T23:42:26.139Z,5.67
2019-05-29T23:44:54.143Z,5.73
2019-05-29T23:47:21.541Z,4.43
2019-05-29T23:49:49.014Z,9.63
2019-05-29T23:52:15.736Z,6.73
2019-05-29T23:54:42.553Z,5.73
2019-05-29T23:57:09.314Z,3.60
2019-05-29T23:59:35.994Z,5.50
